Time;durP1;ratioP1;P1;durP2;ratioP2;P2;SDS_P1;SDS_P2;PMS_P1;PMS_P2;Temp;Humidity;BMP_temperature;BMP_pressure;BME280_temperature;BME280_humidity;BME280_pressure;Samples;Min_cycle;Max_cycle;Signal;HPM_P1;HPM_P2
2023/10/07 00:00:52;;;;;;;5.40;5.30;;;13.90;99.90;;;;;;5091484;28;20466;-66
2023/10/07 00:03:19;;;;;;;5.50;5.40;;;13.90;99.90;;;;;;5098707;28;20461;-67
2023/10/07 00:05:50;;;;;;;5.20;5.10;;;13.90;99.90;;;;;;5089518;28;20469;-67
2023/10/07 00:08:19;;;;;;;5.10;5.07;;;13.90;99.90;;;;;;5099955;28;20588;-67
2023/10/07 00:10:49;;;;;;;4.70;4.70;;;13.90;99.90;;;;;;5096958;28;20497;-66
2023/10/07 00:13:19;;;;;;;4.67;4.67;;;13.90;99.90;;;;;;5091371;28;20464;-67
2023/10/07 00:15:51;;;;;;;4.70;4.70;;;13.90;99.90;;;;;;5099133;28;20495;-66
2023/10/07 00:18:19;;;;;;;4.43;4.43;;;13.90;99.90;;;;;;5105192;28;20456;-67
2023/10/07 00:20:49;;;;;;;5.17;5.07;;;13.90;99.90;;;;;;5095736;28;20880;-66
2023/10/07 00:23:20;;;;;;;4.47;4.47;;;14.00;99.90;;;;;;5090509;28;20473;-67
2023/10/07 00:25:50;;;;;;;4.13;4.13;;;13.90;99.90;;;;;;5106072;28;20468;-66
2023/10/07 00:28:31;;;;;;;4.73;4.73;;;13.90;99.90;;;;;;5089699;28;20903;-67
2023/10/07 00:31:02;;;;;;;4.67;4.67;;;13.90;99.90;;;;;;5110023;28;20465;-66
2023/10/07 00:33:45;;;;;;;4.37;4.37;;;13.90;99.90;;;;;;5096595;28;20874;-67
2023/10/07 00:36:15;;;;;;;3.90;3.90;;;13.90;99.90;;;;;;5104101;28;20472;-66
2023/10/07 00:38:45;;;;;;;4.13;4.13;;;13.90;99.90;;;;;;5099489;28;20454;-66
2023/10/07 00:41:18;;;;;;;3.80;3.80;;;13.90;99.90;;;;;;5109413;28;20500;-67
2023/10/07 00:43:46;;;;;;;4.33;4.33;;;13.90;99.90;;;;;;5098788;28;20460;-66
2023/10/07 00:46:24;;;;;;;4.13;4.13;;;13.90;99.90;;;;;;5093403;28;20977;-67
2023/10/07 00:48:52;;;;;;;4.33;4.33;;;13.90;99.90;;;;;;5107815;28;21043;-67
2023/10/07 00:51:33;;;;;;;3.97;3.97;;;13.90;99.90;;;;;;5105898;28;20569;-67
2023/10/07 00:54:16;;;;;;;4.30;4.30;;;14.00;99.90;;;;;;5098813;28;20507;-68
2023/10/07 00:56:50;;;;;;;3.70;3.70;;;13.90;99.90;;;;;;5100340;28;20460;-66
2023/10/07 00:59:19;;;;;;;3.57;3.57;;;13.90;99.90;;;;;;5096390;28;20576;-67
2023/10/07 01:01:50;;;;;;;3.87;3.87;;;13.90;99.90;;;;;;5094127;28;20454;-68
2023/10/07 01:04:18;;;;;;;3.70;3.70;;;13.90;99.90;;;;;;5090787;28;20473;-66
2023/10/07 01:06:46;;;;;;;3.23;3.23;;;13.90;99.90;;;;;;5095904;28;20549;-68
2023/10/07 01:09:14;;;;;;;3.20;3.20;;;13.90;99.90;;;;;;5095911;28;20469;-67
2023/10/07 01:11:45;;;;;;;3.20;3.20;;;13.90;99.90;;;;;;5099776;28;20488;-67
2023/10/07 01:14:12;;;;;;;3.83;3.83;;;13.90;99.90;;;;;;5098578;28;20491;-67
2023/10/07 01:16:44;;;;;;;3.20;3.20;;;13.90;99.90;;;;;;5105564;28;20481;-68
2023/10/07 01:19:28;;;;;;;3.37;3.37;;;13.90;99.90;;;;;;5096241;28;20553;-66
2023/10/07 01:21:58;;;;;;;3.00;3.00;;;13.90;99.90;;;;;;5103327;28;20465;-67
2023/10/07 01:24:49;;;;;;;3.27;3.27;;;13.80;99.90;;;;;;5093230;28;20454;-66
2023/10/07 01:27:22;;;;;;;3.00;3.00;;;13.80;99.90;;;;;;5090302;28;20454;-67
2023/10/07 01:29:50;;;;;;;2.93;2.93;;;13.70;99.90;;;;;;5093602;28;21013;-66
2023/10/07 01:32:19;;;;;;;2.83;2.83;;;13.70;99.90;;;;;;5099024;28;20984;-67
2023/10/07 01:34:52;;;;;;;3.00;3.00;;;13.70;99.90;;;;;;5087917;28;20963;-66
2023/10/07 01:37:21;;;;;;;3.00;3.00;;;13.70;99.90;;;;;;5094349;28;20866;-66
2023/10/07 01:39:52;;;;;;;2.83;2.83;;;13.70;99.90;;;;;;5102467;28;20466;-66
2023/10/07 01:42:23;;;;;;;2.80;2.80;;;13.70;99.90;;;;;;5097614;28;20478;-68
2023/10/07 01:44:55;;;;;;;3.10;3.10;;;13.60;99.90;;;;;;5090241;28;20466;-67
2023/10/07 01:47:24;;;;;;;2.40;2.40;;;13.70;99.90;;;;;;5093069;28;20554;-67
2023/10/07 01:49:53;;;;;;;2.60;2.60;;;13.70;99.90;;;;;;5098032;28;20481;-66
2023/10/07 01:52:24;;;;;;;2.47;2.47;;;13.70;99.90;;;;;;5105223;28;20494;-67
2023/10/07 01:54:53;;;;;;;2.50;2.50;;;13.70;99.90;;;;;;5088455;28;20537;-67
2023/10/07 01:57:20;;;;;;;2.53;2.53;;;13.70;99.90;;;;;;5089366;28;20450;-67
2023/10/07 01:59:47;;;;;;;2.67;2.67;;;13.70;99.90;;;;;;5091480;28;20464;-66
2023/10/07 02:02:15;;;;;;;2.80;2.80;;;13.70;99.90;;;;;;5093182;28;20629;-67
2023/10/07 02:04:42;;;;;;;2.67;2.67;;;13.70;99.90;;;;;;5097495;28;20535;-68
2023/10/07 02:07:09;;;;;;;2.73;2.73;;;13.70;99.90;;;;;;5103551;28;20477;-66
2023/10/07 02:09:40;;;;;;;2.20;2.20;;;13.70;99.90;;;;;;5088434;28;20461;-66
2023/10/07 02:12:11;;;;;;;2.10;2.10;;;13.70;99.90;;;;;;5104234;28;20495;-67
2023/10/07 02:14:39;;;;;;;2.00;2.00;;;13.70;99.90;;;;;;5093896;28;20993;-67
2023/10/07 02:17:11;;;;;;;2.10;2.10;;;13.70;99.90;;;;;;5102141;28;20584;-67
2023/10/07 02:19:40;;;;;;;2.00;2.00;;;13.80;99.90;;;;;;5095353;28;20454;-67
2023/10/07 02:22:13;;;;;;;2.30;2.30;;;13.80;99.90;;;;;;5098253;28;20550;-67
2023/10/07 02:24:41;;;;;;;2.00;2.00;;;13.80;99.90;;;;;;5101685;28;20548;-68
2023/10/07 02:27:17;;;;;;;2.10;2.10;;;13.80;99.90;;;;;;5101388;28;20445;-66
2023/10/07 02:29:44;;;;;;;2.10;2.10;;;13.90;99.90;;;;;;5096020;28;20512;-67
2023/10/07 02:32:14;;;;;;;1.93;1.93;;;13.90;99.90;;;;;;5093862;28;20514;-67
2023/10/07 02:34:51;;;;;;;1.83;1.83;;;14.00;99.90;;;;;;5098853;28;20457;-67
2023/10/07 02:37:21;;;;;;;2.23;2.23;;;14.00;99.90;;;;;;5106217;28;20484;-66
2023/10/07 02:39:48;;;;;;;2.07;2.07;;;14.00;99.90;;;;;;5104804;28;20454;-68
2023/10/07 02:42:21;;;;;;;1.70;1.70;;;14.00;99.90;;;;;;5101746;28;20484;-67
2023/10/07 02:44:51;;;;;;;1.87;1.87;;;13.90;99.90;;;;;;5091963;28;20999;-67
2023/10/07 02:47:18;;;;;;;1.70;1.70;;;14.00;99.90;;;;;;5098192;28;21060;-66
2023/10/07 02:49:49;;;;;;;2.07;2.07;;;13.90;99.90;;;;;;5094932;28;20879;-67
2023/10/07 02:52:19;;;;;;;1.50;1.50;;;13.90;99.90;;;;;;5098255;28;20891;-67
2023/10/07 02:55:06;;;;;;;2.00;2.00;;;13.90;99.90;;;;;;5091902;28;20503;-66
2023/10/07 02:57:39;;;;;;;2.00;2.00;;;14.00;99.90;;;;;;5095792;28;20444;-68
2023/10/07 03:00:16;;;;;;;1.83;1.83;;;14.10;99.90;;;;;;5103282;28;20463;-67
2023/10/07 03:02:49;;;;;;;1.77;1.77;;;14.20;99.90;;;;;;5101655;27;21126;-67
2023/10/07 03:05:27;;;;;;;2.10;2.10;;;14.20;99.90;;;;;;5099783;28;20842;-67
2023/10/07 03:08:02;;;;;;;2.00;2.00;;;14.20;99.90;;;;;;5103549;28;20501;-67
2023/10/07 03:10:42;;;;;;;2.00;2.00;;;14.20;99.90;;;;;;5091725;28;20528;-68
2023/10/07 03:13:15;;;;;;;1.77;1.77;;;14.20;99.90;;;;;;5091657;28;20804;-66
2023/10/07 03:15:46;;;;;;;2.10;2.10;;;14.30;99.90;;;;;;5091403;28;21004;-67
2023/10/07 03:18:21;;;;;;;1.73;1.73;;;14.30;99.90;;;;;;5092639;28;20884;-66
2023/10/07 03:20:59;;;;;;;2.10;2.10;;;14.30;99.90;;;;;;5092943;28;21181;-67
2023/10/07 03:23:27;;;;;;;2.10;2.10;;;14.20;99.90;;;;;;5095662;28;20493;-67
2023/10/07 03:26:06;;;;;;;2.33;2.33;;;14.30;99.90;;;;;;5104942;28;20967;-68
2023/10/07 03:28:37;;;;;;;2.40;2.40;;;14.40;99.90;;;;;;5096988;28;20474;-66
2023/10/07 03:31:10;;;;;;;2.13;2.13;;;14.40;99.90;;;;;;5091280;28;21004;-67
2023/10/07 03:33:45;;;;;;;2.00;2.00;;;14.30;99.90;;;;;;5095503;28;20457;-67
2023/10/07 03:36:30;;;;;;;2.30;2.30;;;14.40;99.90;;;;;;5101019;27;20552;-68
2023/10/07 03:39:16;;;;;;;1.80;1.80;;;14.40;99.90;;;;;;5103723;28;20795;-65
2023/10/07 03:41:47;;;;;;;2.13;2.13;;;14.40;99.90;;;;;;5098617;28;20589;-68
2023/10/07 03:44:16;;;;;;;1.77;1.77;;;14.50;99.90;;;;;;5102317;28;20457;-65
2023/10/07 03:46:47;;;;;;;2.07;2.07;;;14.40;99.90;;;;;;5097314;28;20462;-67
2023/10/07 03:49:15;;;;;;;1.80;1.80;;;14.40;99.90;;;;;;5103365;28;20766;-66
2023/10/07 03:51:45;;;;;;;2.00;2.00;;;14.50;99.90;;;;;;5103797;28;20497;-66
2023/10/07 03:54:15;;;;;;;1.40;1.40;;;14.50;99.90;;;;;;5104110;28;20489;-66
2023/10/07 03:56:43;;;;;;;1.80;1.80;;;14.50;99.90;;;;;;5092918;28;20546;-67
2023/10/07 03:59:14;;;;;;;1.97;1.97;;;14.60;99.90;;;;;;5105197;28;20806;-66
2023/10/07 04:01:44;;;;;;;1.87;1.87;;;14.60;99.90;;;;;;5096434;28;20522;-68
2023/10/07 04:04:13;;;;;;;2.00;2.00;;;14.60;99.90;;;;;;5088186;28;20465;-66
2023/10/07 04:06:40;;;;;;;1.90;1.90;;;14.60;99.90;;;;;;5090687;28;20796;-66
2023/10/07 04:09:09;;;;;;;1.90;1.90;;;14.60;99.90;;;;;;5099318;28;20466;-67
2023/10/07 04:11:48;;;;;;;2.30;2.30;;;14.70;99.90;;;;;;5100778;28;20496;-67
2023/10/07 04:14:27;;;;;;;2.50;2.50;;;14.80;99.90;;;;;;5098377;28;20466;-67
2023/10/07 04:16:59;;;;;;;2.43;2.43;;;14.70;99.90;;;;;;5099758;28;20485;-68
2023/10/07 04:19:38;;;;;;;2.20;2.20;;;14.80;99.90;;;;;;5100908;28;20560;-66
2023/10/07 04:22:08;;;;;;;2.40;2.40;;;14.80;99.90;;;;;;5095995;28;20834;-66
2023/10/07 04:24:38;;;;;;;2.50;2.50;;;14.80;99.90;;;;;;5093298;28;20835;-66
2023/10/07 04:27:07;;;;;;;2.33;2.33;;;14.80;99.90;;;;;;5099810;28;20463;-67
2023/10/07 04:29:34;;;;;;;2.70;2.70;;;14.80;99.90;;;;;;5107260;28;20479;-67
2023/10/07 04:32:11;;;;;;;2.30;2.30;;;14.90;99.90;;;;;;5096443;28;20508;-67
2023/10/07 04:34:50;;;;;;;2.80;2.80;;;14.90;99.90;;;;;;5090265;28;20457;-66
2023/10/07 04:37:18;;;;;;;2.43;2.43;;;14.90;99.90;;;;;;5090803;28;20462;-68
2023/10/07 04:42:38;;;;;;;2.57;2.57;;;14.80;99.90;;;;;;5098385;28;20472;-67
2023/10/07 04:45:22;;;;;;;2.57;2.57;;;14.90;99.90;;;;;;5098684;28;20481;-66
2023/10/07 04:47:57;;;;;;;2.40;2.40;;;14.90;99.90;;;;;;5100674;28;20479;-66
2023/10/07 04:50:35;;;;;;;2.90;2.90;;;14.80;99.90;;;;;;5091305;28;20461;-67
2023/10/07 04:53:03;;;;;;;2.40;2.40;;;14.90;99.90;;;;;;5099804;27;20576;-66
2023/10/07 04:55:30;;;;;;;2.80;2.80;;;14.90;99.90;;;;;;5100611;28;20497;-67
2023/10/07 04:57:58;;;;;;;2.60;2.60;;;14.90;99.90;;;;;;5102278;28;20554;-68
2023/10/07 05:00:37;;;;;;;2.40;2.40;;;14.90;99.90;;;;;;5098516;28;20196;-67
2023/10/07 05:03:14;;;;;;;2.40;2.40;;;15.00;99.90;;;;;;5092279;28;20462;-67
2023/10/07 05:05:43;;;;;;;2.80;2.80;;;15.00;99.90;;;;;;5098065;28;20509;-67
2023/10/07 05:08:11;;;;;;;2.30;2.30;;;15.00;99.90;;;;;;5093295;28;20450;-67
2023/10/07 05:10:39;;;;;;;2.50;2.50;;;15.00;99.90;;;;;;5096334;28;20454;-67
2023/10/07 05:13:07;;;;;;;2.80;2.80;;;14.90;99.90;;;;;;5097786;28;20501;-68
2023/10/07 05:15:33;;;;;;;2.70;2.70;;;14.90;99.90;;;;;;5094591;28;20482;-66
2023/10/07 05:18:02;;;;;;;2.30;2.30;;;15.00;99.90;;;;;;5096579;28;20530;-67
2023/10/07 05:20:32;;;;;;;2.83;2.83;;;15.00;99.90;;;;;;5091286;28;20539;-68
2023/10/07 05:23:01;;;;;;;2.30;2.30;;;15.00;99.90;;;;;;5090892;28;20823;-67
2023/10/07 05:25:28;;;;;;;2.43;2.43;;;15.00;99.90;;;;;;5089072;28;20992;-66
2023/10/07 05:27:56;;;;;;;2.63;2.63;;;15.00;99.90;;;;;;5096129;28;20457;-66
2023/10/07 05:30:23;;;;;;;2.40;2.40;;;15.00;99.90;;;;;;5092673;28;20486;-67
2023/10/07 05:32:50;;;;;;;2.60;2.60;;;15.00;99.90;;;;;;5102201;28;20493;-66
2023/10/07 05:35:19;;;;;;;2.60;2.60;;;15.00;99.90;;;;;;5096251;28;20457;-66
2023/10/07 05:37:47;;;;;;;2.60;2.60;;;15.00;99.90;;;;;;5105401;28;21106;-67
2023/10/07 05:40:16;;;;;;;2.53;2.53;;;15.10;99.90;;;;;;5091673;28;20454;-66
2023/10/07 05:42:43;;;;;;;2.57;2.57;;;15.10;99.90;;;;;;5093936;28;21016;-66
2023/10/07 05:45:14;;;;;;;2.00;2.00;;;15.00;99.90;;;;;;5086898;28;20566;-67
2023/10/07 05:47:44;;;;;;;2.37;2.37;;;15.00;99.90;;;;;;5095967;28;20542;-67
2023/10/07 05:50:12;;;;;;;2.50;2.50;;;15.10;99.90;;;;;;5096772;28;20464;-67
2023/10/07 05:52:39;;;;;;;2.60;2.60;;;15.10;99.90;;;;;;5094111;28;21011;-66
2023/10/07 05:55:10;;;;;;;2.70;2.70;;;15.10;99.90;;;;;;5094716;28;20465;-66
2023/10/07 05:57:39;;;;;;;2.83;2.83;;;15.10;99.90;;;;;;5093617;28;20472;-67
2023/10/07 06:00:09;;;;;;;2.70;2.70;;;15.10;99.90;;;;;;5085489;28;20466;-67
2023/10/07 06:02:37;;;;;;;2.83;2.83;;;15.10;99.90;;;;;;5087437;28;20460;-66
2023/10/07 06:05:10;;;;;;;2.90;2.90;;;15.00;99.90;;;;;;5093795;28;20477;-66
2023/10/07 06:07:38;;;;;;;2.87;2.87;;;15.10;99.90;;;;;;5092399;28;20458;-68
2023/10/07 06:10:09;;;;;;;2.90;2.90;;;15.20;99.90;;;;;;5097110;28;20457;-66
2023/10/07 06:12:36;;;;;;;2.80;2.80;;;15.30;99.90;;;;;;5092115;28;20525;-67
2023/10/07 06:15:08;;;;;;;2.60;2.60;;;15.30;99.90;;;;;;5091911;28;20781;-66
2023/10/07 06:17:36;;;;;;;2.60;2.60;;;15.30;99.90;;;;;;5094429;27;20469;-66
2023/10/07 06:20:14;;;;;;;2.70;2.70;;;15.30;99.90;;;;;;5097884;28;20450;-65
2023/10/07 06:22:45;;;;;;;2.50;2.50;;;15.30;99.90;;;;;;5097673;28;20452;-67
2023/10/07 06:25:14;;;;;;;2.80;2.80;;;15.30;99.90;;;;;;5091233;28;20446;-67
2023/10/07 06:27:43;;;;;;;2.73;2.73;;;15.30;99.90;;;;;;5093373;28;20793;-67
2023/10/07 06:30:12;;;;;;;2.50;2.50;;;15.30;99.90;;;;;;5097173;28;20565;-67
2023/10/07 06:32:44;;;;;;;2.70;2.70;;;15.30;99.90;;;;;;5095587;28;20896;-66
2023/10/07 06:35:14;;;;;;;2.80;2.80;;;15.40;99.90;;;;;;5098993;28;21108;-67
2023/10/07 06:37:41;;;;;;;2.87;2.87;;;15.30;99.90;;;;;;5100321;28;20446;-67
2023/10/07 06:40:24;;;;;;;3.20;3.20;;;15.30;99.90;;;;;;5100537;27;20508;-66
2023/10/07 06:42:56;;;;;;;3.00;3.00;;;15.40;99.90;;;;;;5098468;28;20478;-67
2023/10/07 06:45:22;;;;;;;3.20;3.20;;;15.50;99.90;;;;;;5100549;28;20547;-66
2023/10/07 06:47:50;;;;;;;3.33;3.33;;;15.60;99.90;;;;;;5102988;27;20863;-67
2023/10/07 06:50:20;;;;;;;3.37;3.37;;;15.60;99.90;;;;;;5104662;28;20449;-67
2023/10/07 06:52:49;;;;;;;3.30;3.30;;;15.70;99.90;;;;;;5102561;28;21030;-66
2023/10/07 06:55:16;;;;;;;3.50;3.50;;;15.80;99.90;;;;;;5093863;28;20470;-67
2023/10/07 06:57:46;;;;;;;3.40;3.40;;;15.90;99.90;;;;;;5097818;28;20566;-66
2023/10/07 07:00:22;;;;;;;3.50;3.50;;;16.00;99.90;;;;;;5089965;28;20462;-66
2023/10/07 07:02:54;;;;;;;3.40;3.40;;;16.10;99.90;;;;;;5097650;28;20465;-68
2023/10/07 07:05:23;;;;;;;3.37;3.37;;;16.10;99.90;;;;;;5090603;28;20886;-67
2023/10/07 07:07:52;;;;;;;3.90;3.90;;;16.10;99.90;;;;;;5093034;28;20462;-67
2023/10/07 07:10:27;;;;;;;3.70;3.70;;;16.20;99.90;;;;;;5096158;28;20936;-68
2023/10/07 07:12:59;;;;;;;4.40;4.40;;;16.30;99.90;;;;;;5096733;28;20484;-67
2023/10/07 07:15:36;;;;;;;4.53;4.53;;;16.20;99.90;;;;;;5090304;28;20586;-67
2023/10/07 07:18:13;;;;;;;4.43;4.43;;;16.30;99.90;;;;;;5094618;28;20464;-65
2023/10/07 07:21:00;;;;;;;4.30;4.30;;;16.20;99.90;;;;;;5097744;28;20975;-67
2023/10/07 07:23:35;;;;;;;4.50;4.50;;;16.20;99.90;;;;;;5097941;28;20448;-67
2023/10/07 07:26:09;;;;;;;4.50;4.50;;;16.30;99.90;;;;;;5096722;28;20466;-67
2023/10/07 07:28:42;;;;;;;4.77;4.77;;;16.30;99.90;;;;;;5099151;28;20511;-68
2023/10/07 07:31:18;;;;;;;4.70;4.70;;;16.30;99.90;;;;;;5110372;28;20445;-66
2023/10/07 07:33:48;;;;;;;4.80;4.80;;;16.40;99.90;;;;;;5090595;28;20869;-67
2023/10/07 07:36:24;;;;;;;5.00;5.00;;;16.40;99.90;;;;;;5090373;28;20468;-67
2023/10/07 07:38:54;;;;;;;4.73;4.73;;;16.30;99.90;;;;;;5107783;28;20449;-67
2023/10/07 07:41:29;;;;;;;4.60;4.60;;;16.50;99.90;;;;;;5098864;28;20530;-67
2023/10/07 07:43:59;;;;;;;4.83;4.83;;;16.50;99.90;;;;;;5090314;28;20461;-68
2023/10/07 07:46:30;;;;;;;4.77;4.77;;;16.40;99.90;;;;;;5095037;28;20478;-67
2023/10/07 07:49:05;;;;;;;4.60;4.60;;;16.30;99.90;;;;;;5096606;28;20520;-67
2023/10/07 07:51:37;;;;;;;4.70;4.70;;;16.40;99.90;;;;;;5097048;28;20460;-67
2023/10/07 07:54:06;;;;;;;4.53;4.53;;;16.40;99.90;;;;;;5101597;28;20583;-67
2023/10/07 07:56:33;;;;;;;4.47;4.47;;;16.40;99.90;;;;;;5098055;28;20824;-66
2023/10/07 07:59:00;;;;;;;4.60;4.60;;;16.30;99.90;;;;;;5100147;28;20456;-67
2023/10/07 08:01:29;;;;;;;4.20;4.20;;;16.30;99.90;;;;;;5098702;28;21024;-68
2023/10/07 08:03:59;;;;;;;4.33;4.33;;;16.20;99.90;;;;;;5091670;28;20470;-68
2023/10/07 08:06:27;;;;;;;4.30;4.30;;;16.20;99.90;;;;;;5097380;28;21103;-66
2023/10/07 08:08:55;;;;;;;4.83;4.83;;;16.30;99.90;;;;;;5094433;28;20472;-67
2023/10/07 08:11:22;;;;;;;4.70;4.70;;;16.30;99.90;;;;;;5098951;28;20458;-68
2023/10/07 08:13:49;;;;;;;4.40;4.40;;;16.40;99.90;;;;;;5098163;28;20851;-67
2023/10/07 08:16:18;;;;;;;4.80;4.80;;;16.50;99.90;;;;;;5099172;28;21128;-68
2023/10/07 08:18:48;;;;;;;4.70;4.70;;;16.60;99.90;;;;;;5096872;28;20467;-67
2023/10/07 08:21:16;;;;;;;4.70;4.70;;;16.70;99.90;;;;;;5096134;28;20759;-66
2023/10/07 08:23:46;;;;;;;5.27;5.17;;;17.00;99.90;;;;;;5096123;28;20461;-67
2023/10/07 08:26:22;;;;;;;5.60;5.50;;;17.20;99.90;;;;;;5096252;28;20468;-68
2023/10/07 08:29:00;;;;;;;5.70;5.60;;;17.30;99.90;;;;;;5097382;28;20457;-68
2023/10/07 08:31:37;;;;;;;5.70;5.60;;;17.40;99.90;;;;;;5092994;28;20759;-68
2023/10/07 08:34:10;;;;;;;6.23;6.13;;;17.40;99.90;;;;;;5087431;28;20481;-66
2023/10/07 08:36:38;;;;;;;5.80;5.70;;;17.30;99.90;;;;;;5091116;28;20584;-66
2023/10/07 08:39:06;;;;;;;6.13;6.03;;;17.50;99.90;;;;;;5092209;28;20466;-67
2023/10/07 08:41:34;;;;;;;6.20;6.10;;;17.80;99.90;;;;;;5097255;28;20477;-66
2023/10/07 08:44:13;;;;;;;6.90;6.80;;;18.10;99.90;;;;;;5093142;28;20533;-68
2023/10/07 08:46:40;;;;;;;7.07;6.97;;;17.90;99.90;;;;;;5097142;28;20492;-68
2023/10/07 08:49:15;;;;;;;6.30;6.20;;;17.90;99.90;;;;;;5102722;28;20470;-67
2023/10/07 08:51:43;;;;;;;6.80;6.70;;;17.90;99.90;;;;;;5098394;28;20459;-67
2023/10/07 08:54:26;;;;;;;7.30;7.20;;;18.00;99.90;;;;;;5099320;28;20521;-68
2023/10/07 08:56:57;;;;;;;6.80;6.70;;;17.90;99.90;;;;;;5097163;28;20467;-68
2023/10/07 08:59:25;;;;;;;6.80;6.70;;;18.00;99.90;;;;;;5091096;28;20469;-68
2023/10/07 09:01:57;;;;;;;6.10;6.00;;;17.60;99.90;;;;;;5100362;28;20449;-66
2023/10/07 09:04:26;;;;;;;6.53;6.43;;;17.60;99.90;;;;;;5104725;28;20893;-66
2023/10/07 09:06:53;;;;;;;7.20;7.10;;;17.80;99.90;;;;;;5086954;28;20462;-67
2023/10/07 09:09:38;;;;;;;7.10;7.00;;;17.70;99.90;;;;;;5087681;28;20465;-67
2023/10/07 09:12:14;;;;;;;7.23;7.13;;;17.80;99.90;;;;;;5094845;28;20944;-67
2023/10/07 09:14:47;;;;;;;7.37;7.27;;;17.60;99.90;;;;;;5093536;28;20487;-67
2023/10/07 09:17:15;;;;;;;7.10;7.00;;;17.60;99.90;;;;;;5095381;28;20478;-66
2023/10/07 09:19:47;;;;;;;6.73;6.63;;;17.60;99.90;;;;;;5094902;28;20552;-67
2023/10/07 09:22:24;;;;;;;7.33;7.23;;;17.60;99.90;;;;;;5096830;28;21067;-68
2023/10/07 09:24:54;;;;;;;6.80;6.70;;;17.60;99.90;;;;;;5096507;28;20491;-66
2023/10/07 09:27:36;;;;;;;6.60;6.50;;;17.70;99.90;;;;;;5095386;28;20583;-67
2023/10/07 09:30:33;;;;;;;7.63;7.53;;;17.80;99.90;;;;;;5096838;28;21081;-67
2023/10/07 09:32:55;;;;;;;7.10;7.00;;;17.80;99.90;;;;;;5096628;28;20511;-67
2023/10/07 09:35:25;;;;;;;7.10;7.00;;;17.90;99.90;;;;;;5089995;28;20472;-67
2023/10/07 09:37:54;;;;;;;7.43;7.33;;;17.90;99.90;;;;;;5087292;28;20557;-68
2023/10/07 09:43:07;;;;;;;8.10;8.00;;;18.10;99.90;;;;;;5095375;28;20927;-68
2023/10/07 09:45:37;;;;;;;7.77;7.67;;;18.20;99.90;;;;;;5092827;28;20472;-67
2023/10/07 09:48:05;;;;;;;7.70;7.60;;;18.40;99.90;;;;;;5096079;28;20465;-68
2023/10/07 09:50:37;;;;;;;7.83;7.73;;;18.70;99.90;;;;;;5091100;28;20975;-68
2023/10/07 09:53:21;;;;;;;8.10;8.00;;;19.10;99.90;;;;;;5100654;28;20485;-68
2023/10/07 09:56:11;;;;;;;8.30;8.20;;;19.50;99.90;;;;;;5089420;28;20504;-68
2023/10/07 09:58:59;;;;;;;8.07;7.97;;;19.80;99.90;;;;;;5086324;28;20886;-67
2023/10/07 10:01:37;;;;;;;8.40;8.30;;;20.40;99.90;;;;;;5091541;28;21039;-68
2023/10/07 10:04:21;;;;;;;8.90;8.80;;;20.50;99.90;;;;;;5091692;28;20990;-67
2023/10/07 10:07:05;;;;;;;8.70;8.60;;;20.70;99.90;;;;;;5101010;28;20759;-67
2023/10/07 10:09:45;;;;;;;8.70;8.60;;;21.00;99.90;;;;;;5098964;28;20835;-69
2023/10/07 10:12:27;;;;;;;9.20;9.00;;;21.40;99.90;;;;;;5100108;28;20546;-66
2023/10/07 10:15:50;;;;;;;9.40;9.20;;;21.50;99.90;;;;;;5086144;28;20639;-67
2023/10/07 10:17:48;;;;;;;9.50;9.30;;;21.40;99.90;;;;;;5106585;28;20990;-67
2023/10/07 10:20:18;;;;;;;9.77;9.57;;;21.30;99.90;;;;;;5102024;28;20462;-67
2023/10/07 10:22:53;;;;;;;9.70;9.50;;;21.20;99.90;;;;;;5100023;28;20831;-68
2023/10/07 10:25:36;;;;;;;10.20;10.00;;;21.20;99.90;;;;;;5097526;28;20452;-66
2023/10/07 10:28:06;;;;;;;9.80;9.60;;;21.10;99.90;;;;;;5102633;28;20888;-68
2023/10/07 10:30:33;;;;;;;9.80;9.60;;;21.20;99.90;;;;;;5097841;28;20460;-66
2023/10/07 10:33:08;;;;;;;9.80;9.60;;;21.40;99.90;;;;;;5093284;28;20959;-68
2023/10/07 10:35:40;;;;;;;9.90;9.70;;;21.70;99.90;;;;;;5094620;28;20552;-67
2023/10/07 10:38:09;;;;;;;9.70;9.50;;;21.60;99.90;;;;;;5095530;28;20450;-66
2023/10/07 10:40:37;;;;;;;9.80;9.60;;;21.60;99.90;;;;;;5107747;28;20548;-66
2023/10/07 10:43:05;;;;;;;9.53;9.33;;;22.00;99.90;;;;;;5088394;28;20618;-68
2023/10/07 10:45:33;;;;;;;9.80;9.60;;;21.90;99.90;;;;;;5101297;28;20453;-67
2023/10/07 10:48:00;;;;;;;10.30;10.10;;;21.60;99.90;;;;;;5096456;28;20459;-67
2023/10/07 10:50:28;;;;;;;10.30;10.10;;;21.90;99.90;;;;;;5095328;28;20525;-68
2023/10/07 10:52:56;;;;;;;10.20;10.00;;;22.10;99.90;;;;;;5087392;28;21031;-67
2023/10/07 10:55:33;;;;;;;9.70;9.50;;;22.40;99.90;;;;;;5101594;28;20468;-67
2023/10/07 10:58:00;;;;;;;10.27;10.07;;;22.70;99.90;;;;;;5099450;28;20506;-68
2023/10/07 11:00:28;;;;;;;10.10;9.90;;;22.80;99.90;;;;;;5107359;28;20461;-67
2023/10/07 11:02:56;;;;;;;9.40;9.20;;;22.90;99.90;;;;;;5089660;28;20462;-67
2023/10/07 11:05:25;;;;;;;9.50;9.30;;;22.30;99.90;;;;;;5102450;28;20465;-68
2023/10/07 11:07:53;;;;;;;9.97;9.77;;;22.70;99.90;;;;;;5102902;28;20468;-68
2023/10/07 11:10:22;;;;;;;9.40;9.20;;;22.80;99.90;;;;;;5090659;28;20449;-68
2023/10/07 11:12:52;;;;;;;9.50;9.30;;;23.10;99.90;;;;;;5101983;28;20489;-69
2023/10/07 11:15:24;;;;;;;10.30;10.10;;;23.40;99.90;;;;;;5090765;28;21043;-68
2023/10/07 11:17:57;;;;;;;10.30;10.10;;;23.10;99.90;;;;;;5098059;28;20557;-68
2023/10/07 11:20:25;;;;;;;9.93;9.73;;;23.00;99.90;;;;;;5099456;28;20996;-69
2023/10/07 11:22:53;;;;;;;10.20;10.00;;;23.60;99.90;;;;;;5103032;28;20449;-68
2023/10/07 11:25:23;;;;;;;10.07;9.87;;;23.90;99.90;;;;;;5103167;28;20816;-68
2023/10/07 11:27:51;;;;;;;10.20;10.00;;;23.90;99.90;;;;;;5091427;28;20814;-68
2023/10/07 11:30:21;;;;;;;10.03;9.83;;;23.90;99.90;;;;;;5104627;28;20567;-68
2023/10/07 11:32:48;;;;;;;10.20;10.00;;;23.70;99.90;;;;;;5103627;28;20459;-68
2023/10/07 11:35:19;;;;;;;10.30;10.10;;;23.40;99.90;;;;;;5092615;28;20490;-67
2023/10/07 11:37:57;;;;;;;9.80;9.60;;;23.40;99.90;;;;;;5098914;28;20449;-68
2023/10/07 11:40:25;;;;;;;9.80;9.60;;;23.70;99.90;;;;;;5094137;28;20544;-68
2023/10/07 11:42:56;;;;;;;10.30;10.10;;;23.90;99.90;;;;;;5096900;28;20489;-68
2023/10/07 11:45:25;;;;;;;10.40;10.20;;;23.80;99.90;;;;;;5107352;28;20568;-68
2023/10/07 11:47:57;;;;;;;10.10;9.90;;;24.10;99.90;;;;;;5101836;28;20527;-69
2023/10/07 11:50:27;;;;;;;9.90;9.70;;;24.10;99.90;;;;;;5103436;28;20466;-68
2023/10/07 11:52:53;;;;;;;10.60;10.40;;;24.30;99.90;;;;;;5094150;28;20461;-68
2023/10/07 11:55:20;;;;;;;10.50;10.30;;;24.20;99.90;;;;;;5100172;28;20988;-68
2023/10/07 11:57:47;;;;;;;10.20;10.00;;;24.10;99.90;;;;;;5101763;28;21023;-69
2023/10/07 12:00:27;;;;;;;9.70;9.50;;;24.60;99.90;;;;;;5104788;28;20466;-69
2023/10/07 12:02:57;;;;;;;10.10;9.90;;;24.70;99.90;;;;;;5098660;27;20912;-68
2023/10/07 12:05:27;;;;;;;10.17;9.97;;;24.10;99.90;;;;;;5098830;28;20466;-68
2023/10/07 12:07:54;;;;;;;9.80;9.60;;;24.30;99.90;;;;;;5093119;28;20470;-68
2023/10/07 12:10:22;;;;;;;10.37;10.17;;;24.60;99.90;;;;;;5094185;28;20464;-68
2023/10/07 12:12:51;;;;;;;10.70;10.50;;;24.60;99.90;;;;;;5096063;28;20778;-69
2023/10/07 12:15:21;;;;;;;10.60;10.40;;;24.70;99.90;;;;;;5107065;28;20504;-69
2023/10/07 12:17:49;;;;;;;10.93;10.73;;;24.60;99.90;;;;;;5091279;28;20513;-68
2023/10/07 12:20:19;;;;;;;10.50;10.30;;;24.60;99.90;;;;;;5098603;28;20508;-68
2023/10/07 12:22:47;;;;;;;11.30;11.00;;;24.50;99.90;;;;;;5097574;28;20508;-69
2023/10/07 12:25:17;;;;;;;10.80;10.60;;;24.60;99.90;;;;;;5092560;28;20978;-68
2023/10/07 12:27:47;;;;;;;10.87;10.67;;;24.40;99.90;;;;;;5096891;28;20503;-68
2023/10/07 12:30:20;;;;;;;11.20;10.90;;;24.20;99.90;;;;;;5108222;28;20445;-68
2023/10/07 12:32:50;;;;;;;10.60;10.40;;;24.10;99.90;;;;;;5100955;28;20568;-69
2023/10/07 12:35:17;;;;;;;10.60;10.40;;;24.40;99.90;;;;;;5098733;28;20493;-68
2023/10/07 12:37:48;;;;;;;10.80;10.60;;;24.60;99.90;;;;;;5102582;28;20928;-68
2023/10/07 12:40:17;;;;;;;11.50;11.20;;;24.70;99.90;;;;;;5097440;28;20462;-68
2023/10/07 12:42:46;;;;;;;11.17;10.90;;;24.80;99.90;;;;;;5103084;28;20480;-68
2023/10/07 12:45:13;;;;;;;10.13;9.93;;;24.80;99.90;;;;;;5104639;28;20468;-68
2023/10/07 12:47:42;;;;;;;10.57;10.37;;;25.20;99.90;;;;;;5092304;28;20470;-68
2023/10/07 12:50:23;;;;;;;10.17;9.97;;;25.10;99.90;;;;;;5096989;28;20519;-68
2023/10/07 12:52:51;;;;;;;11.30;11.00;;;25.10;99.90;;;;;;5087510;28;20462;-69
2023/10/07 12:55:19;;;;;;;10.97;10.77;;;25.10;99.90;;;;;;5088570;28;20504;-69
2023/10/07 12:57:49;;;;;;;10.90;10.70;;;25.20;99.90;;;;;;5087807;28;20899;-67
2023/10/07 13:00:21;;;;;;;10.87;10.67;;;25.40;99.90;;;;;;5095196;28;20453;-66
2023/10/07 13:02:49;;;;;;;10.90;10.70;;;25.40;99.90;;;;;;5100955;28;20565;-67
2023/10/07 13:05:20;;;;;;;11.40;11.10;;;25.50;99.90;;;;;;5088422;28;20464;-67
2023/10/07 13:07:48;;;;;;;12.03;11.73;;;25.90;99.90;;;;;;5102138;28;20469;-66
2023/10/07 13:10:17;;;;;;;11.83;11.53;;;25.60;99.90;;;;;;5100414;28;20454;-69